Time;durP1;ratioP1;P1;durP2;ratioP2;P2;SDS_P1;SDS_P2;PMS_P1;PMS_P2;Temp;Humidity;BMP_temperature;BMP_pressure;BME280_temperature;BME280_humidity;BME280_pressure;Samples;Min_cycle;Max_cycle;Signal;HPM_P1;HPM_P2
2023/03/10 04:01:08;;;;;;;4.87;4.67;;;10.70;99.90;;;;;;5592722;23;20244;-78
2023/03/10 04:03:34;;;;;;;4.60;4.40;;;10.60;99.90;;;;;;4936744;29;20186;-76
2023/03/10 04:06:00;;;;;;;5.27;5.07;;;10.60;99.90;;;;;;4934603;29;20782;-75
2023/03/10 04:08:26;;;;;;;5.73;5.43;;;10.60;99.90;;;;;;4934286;29;20278;-76
2023/03/10 04:10:53;;;;;;;8.17;7.77;;;10.60;99.90;;;;;;4924078;29;20243;-76
2023/03/10 04:13:19;;;;;;;9.27;8.87;;;10.50;99.90;;;;;;4916114;29;20183;-77
2023/03/10 04:15:45;;;;;;;10.50;10.10;;;10.50;99.90;;;;;;4916031;29;20193;-76
2023/03/10 04:18:11;;;;;;;9.03;8.70;;;10.60;99.90;;;;;;4915614;29;20621;-76
2023/03/10 04:20:37;;;;;;;10.70;10.27;;;10.60;99.90;;;;;;4904949;29;20246;-76
2023/03/10 04:23:03;;;;;;;9.07;8.67;;;10.60;99.90;;;;;;4914365;29;20250;-75
2023/03/10 04:25:29;;;;;;;12.23;11.73;;;10.50;99.90;;;;;;4917963;29;20255;-76
2023/03/10 04:27:59;;;;;;;15.20;14.50;;;10.50;99.90;;;;;;4914096;29;20187;-76
2023/03/10 04:30:28;;;;;;;13.20;12.60;;;10.50;99.90;;;;;;4903218;29;20295;-76
2023/03/10 04:33:00;;;;;;;13.70;13.10;;;10.50;99.90;;;;;;4896121;29;20187;-77
2023/03/10 04:35:27;;;;;;;15.03;14.33;;;10.50;99.90;;;;;;4896402;29;20188;-77
2023/03/10 04:37:53;;;;;;;16.37;15.67;;;10.50;99.90;;;;;;4896125;29;20275;-77
2023/03/10 04:40:19;;;;;;;18.83;17.87;;;10.50;99.90;;;;;;4901909;29;20690;-77
2023/03/10 04:42:45;;;;;;;19.03;18.13;;;10.50;99.90;;;;;;4909244;29;20190;-77
2023/03/10 04:45:11;;;;;;;13.77;13.17;;;10.50;99.90;;;;;;4900791;29;20191;-77
2023/03/10 04:47:38;;;;;;;17.40;16.60;;;10.40;99.90;;;;;;4914532;29;20183;-77
2023/03/10 04:50:05;;;;;;;26.00;24.80;;;10.40;99.90;;;;;;4916972;29;20270;-77
2023/03/10 04:52:31;;;;;;;30.20;28.80;;;10.30;99.90;;;;;;4913665;29;20207;-77
2023/03/10 04:54:57;;;;;;;31.33;29.90;;;10.20;99.90;;;;;;4910549;29;20194;-73
2023/03/10 04:57:23;;;;;;;26.97;25.57;;;10.20;99.90;;;;;;4914798;29;20194;-74
2023/03/10 04:59:50;;;;;;;28.60;27.30;;;10.30;99.90;;;;;;4912885;29;20203;-73
2023/03/10 05:02:16;;;;;;;19.30;18.40;;;10.20;99.90;;;;;;4914188;29;20214;-75
2023/03/10 05:04:42;;;;;;;11.07;10.57;;;10.40;99.90;;;;;;4914204;29;20221;-74
2023/03/10 05:07:07;;;;;;;29.37;27.93;;;10.50;99.90;;;;;;4914215;29;20207;-74
2023/03/10 05:09:35;;;;;;;33.13;31.57;;;10.60;99.90;;;;;;4909798;29;20231;-74
2023/03/10 05:12:01;;;;;;;29.60;28.20;;;10.70;99.90;;;;;;4895458;29;20203;-74
2023/03/10 05:14:27;;;;;;;21.40;20.40;;;10.70;99.90;;;;;;4895440;29;20192;-74
2023/03/10 05:16:53;;;;;;;16.97;16.07;;;10.70;99.90;;;;;;4894007;29;20558;-74
2023/03/10 05:19:19;;;;;;;15.70;15.00;;;10.70;99.90;;;;;;4894610;29;20222;-74
2023/03/10 05:21:45;;;;;;;17.43;16.43;;;10.70;99.90;;;;;;4893773;29;20236;-74
2023/03/10 05:24:10;;;;;;;29.23;27.83;;;10.60;99.90;;;;;;4895114;29;20232;-74
2023/03/10 05:26:36;;;;;;;40.40;38.30;;;10.50;99.90;;;;;;4895240;29;20183;-74
2023/03/10 05:29:03;;;;;;;15.13;14.43;;;10.30;99.90;;;;;;4893687;29;20191;-74
2023/03/10 05:31:28;;;;;;;5.30;5.00;;;10.20;99.90;;;;;;4913140;29;20218;-74
2023/03/10 05:33:54;;;;;;;11.70;11.03;;;10.00;99.90;;;;;;4914241;29;20187;-74
2023/03/10 05:36:21;;;;;;;27.27;25.67;;;9.90;99.90;;;;;;4912594;29;20222;-74
2023/03/10 05:38:47;;;;;;;24.07;22.97;;;9.80;99.90;;;;;;4912481;29;20274;-74
2023/03/10 05:41:13;;;;;;;22.50;21.50;;;9.70;99.90;;;;;;4913009;29;20210;-74
2023/03/10 05:43:39;;;;;;;18.63;17.70;;;9.60;99.90;;;;;;4895085;29;20194;-74
2023/03/10 05:46:06;;;;;;;13.17;12.53;;;9.50;99.90;;;;;;4895002;29;20275;-74
2023/03/10 05:48:32;;;;;;;9.93;9.37;;;9.50;99.90;;;;;;4894927;29;20216;-74
2023/03/10 05:51:03;;;;;;;10.40;9.80;;;9.70;99.90;;;;;;4908378;29;20714;-75
2023/03/10 05:53:30;;;;;;;13.93;13.27;;;9.70;99.90;;;;;;4916207;29;20186;-74
2023/03/10 05:55:56;;;;;;;25.27;23.87;;;9.80;99.90;;;;;;4915852;29;20183;-74
2023/03/10 05:58:23;;;;;;;19.97;18.80;;;9.90;99.90;;;;;;4917024;29;20187;-75
2023/03/10 06:00:49;;;;;;;13.33;12.70;;;9.90;99.90;;;;;;4903831;29;20215;-74
2023/03/10 06:03:15;;;;;;;5.00;4.80;;;10.10;99.90;;;;;;4897380;29;20271;-74
2023/03/10 06:05:40;;;;;;;4.57;4.30;;;10.20;99.90;;;;;;4897338;29;20270;-75
2023/03/10 06:08:06;;;;;;;24.20;22.93;;;10.40;99.90;;;;;;4899382;29;20824;-75
2023/03/10 06:10:32;;;;;;;36.60;34.90;;;10.60;99.90;;;;;;4914760;29;20211;-73
2023/03/10 06:12:58;;;;;;;32.27;30.57;;;10.60;99.90;;;;;;4917975;29;20572;-73
2023/03/10 06:15:24;;;;;;;24.97;23.57;;;10.60;99.90;;;;;;4917580;29;20187;-74
2023/03/10 06:17:50;;;;;;;20.43;19.50;;;10.70;99.90;;;;;;4916652;29;20183;-74
2023/03/10 06:20:16;;;;;;;25.13;23.80;;;10.70;99.90;;;;;;4914452;29;20274;-74
2023/03/10 06:22:42;;;;;;;40.57;38.60;;;10.70;99.90;;;;;;4915734;29;20183;-74
2023/03/10 06:25:09;;;;;;;16.57;15.53;;;10.60;99.90;;;;;;4916589;29;20187;-74
2023/03/10 06:27:34;;;;;;;17.00;16.20;;;10.40;99.90;;;;;;4916049;29;20246;-75
2023/03/10 06:30:00;;;;;;;23.27;22.17;;;10.30;99.90;;;;;;4909713;29;20187;-75
2023/03/10 06:32:26;;;;;;;14.23;13.53;;;10.20;99.90;;;;;;4897706;29;20224;-74
2023/03/10 06:34:52;;;;;;;6.47;6.13;;;10.10;99.90;;;;;;4910897;29;20328;-74
2023/03/10 06:37:18;;;;;;;33.00;31.10;;;9.80;99.90;;;;;;4917475;29;20612;-75
2023/03/10 06:39:44;;;;;;;10.97;10.47;;;9.70;99.90;;;;;;4914805;29;20198;-76
2023/03/10 06:42:09;;;;;;;10.47;10.03;;;9.50;99.90;;;;;;4917066;29;20679;-75
2023/03/10 06:44:35;;;;;;;13.93;13.30;;;9.60;99.90;;;;;;4915289;29;20257;-75
2023/03/10 06:47:04;;;;;;;9.53;9.13;;;9.50;99.90;;;;;;4915296;29;20179;-75
2023/03/10 06:49:31;;;;;;;12.70;11.80;;;9.60;99.90;;;;;;4913352;29;20178;-75
2023/03/10 06:51:58;;;;;;;29.10;26.93;;;9.50;99.90;;;;;;4896034;29;20258;-75
2023/03/10 06:54:24;;;;;;;12.00;11.47;;;9.50;99.90;;;;;;4896700;29;20206;-73
2023/03/10 06:56:50;;;;;;;9.73;9.17;;;9.40;99.90;;;;;;4896595;29;20564;-73
2023/03/10 06:59:16;;;;;;;14.27;13.40;;;9.30;99.90;;;;;;4896959;29;20183;-73
2023/03/10 07:01:42;;;;;;;15.77;14.93;;;9.40;99.90;;;;;;4898896;29;20223;-74
2023/03/10 07:04:09;;;;;;;9.93;9.20;;;9.50;99.90;;;;;;4914866;29;20199;-76
2023/03/10 07:06:36;;;;;;;8.53;7.77;;;9.70;99.90;;;;;;4913417;29;20569;-74
2023/03/10 07:09:01;;;;;;;5.50;5.30;;;9.70;99.90;;;;;;4910733;29;20183;-72
2023/03/10 07:11:27;;;;;;;6.83;6.33;;;9.70;99.90;;;;;;4916669;29;20206;-73
2023/03/10 07:13:53;;;;;;;17.57;16.67;;;9.80;99.90;;;;;;4916188;29;20187;-73
2023/03/10 07:16:20;;;;;;;8.47;7.97;;;10.00;99.90;;;;;;4915257;29;20179;-73
2023/03/10 07:18:46;;;;;;;7.30;6.70;;;10.00;99.90;;;;;;4914251;29;20214;-73
2023/03/10 07:21:16;;;;;;;9.67;9.17;;;10.00;99.90;;;;;;4928332;29;20865;-73
2023/03/10 07:23:41;;;;;;;17.90;16.93;;;10.00;99.90;;;;;;4936140;29;20171;-73
2023/03/10 07:26:07;;;;;;;21.77;20.67;;;10.30;99.90;;;;;;4934099;29;20241;-73
2023/03/10 07:28:36;;;;;;;26.30;24.93;;;11.00;99.90;;;;;;4922520;29;20187;-72
2023/03/10 07:31:08;;;;;;;7.17;6.77;;;11.40;99.90;;;;;;4915884;29;20646;-73
2023/03/10 07:33:34;;;;;;;40.03;37.97;;;11.60;99.90;;;;;;4916059;29;20194;-72
2023/03/10 07:36:05;;;;;;;23.30;22.10;;;11.70;99.90;;;;;;4915897;29;20254;-73
2023/03/10 07:38:31;;;;;;;5.93;5.73;;;11.60;99.90;;;;;;4903689;29;20218;-73
2023/03/10 07:40:56;;;;;;;8.17;7.77;;;11.50;99.90;;;;;;4905836;29;20242;-72
2023/03/10 07:43:22;;;;;;;8.00;7.50;;;11.50;99.90;;;;;;4915665;29;20183;-72
2023/03/10 07:45:48;;;;;;;6.87;6.37;;;11.50;99.90;;;;;;4916054;29;20226;-73
2023/03/10 07:48:14;;;;;;;6.20;5.83;;;11.50;99.90;;;;;;4907288;29;20194;-73
2023/03/10 07:50:39;;;;;;;4.77;4.57;;;11.40;99.90;;;;;;4895514;29;20199;-73
2023/03/10 07:53:05;;;;;;;5.83;5.33;;;11.40;99.90;;;;;;4896939;29;20226;-73
2023/03/10 07:55:31;;;;;;;5.90;5.50;;;11.40;99.90;;;;;;4896648;29;20203;-74
2023/03/10 07:57:59;;;;;;;5.20;4.90;;;11.40;99.90;;;;;;4900821;29;20186;-72
2023/03/10 08:00:26;;;;;;;4.60;4.40;;;11.30;99.90;;;;;;4914739;29;20223;-73
2023/03/10 08:02:52;;;;;;;5.13;4.93;;;11.20;99.90;;;;;;4915854;29;20201;-72
2023/03/10 08:05:17;;;;;;;7.20;4.87;;;11.20;99.90;;;;;;4914563;29;20719;-72
2023/03/10 08:07:43;;;;;;;5.97;5.57;;;11.20;99.90;;;;;;4911692;29;20184;-73
2023/03/10 08:10:10;;;;;;;4.80;4.60;;;11.30;99.90;;;;;;4896296;29;20196;-74
2023/03/10 08:12:36;;;;;;;4.63;4.37;;;11.30;99.90;;;;;;4896520;29;20208;-73
2023/03/10 08:15:04;;;;;;;7.27;6.97;;;11.20;99.90;;;;;;4894727;29;20561;-73
2023/03/10 08:17:32;;;;;;;4.50;4.20;;;11.30;99.90;;;;;;4896848;29;20278;-72
2023/03/10 08:19:59;;;;;;;5.47;5.10;;;11.40;99.90;;;;;;4914884;29;20214;-73
2023/03/10 08:22:25;;;;;;;8.17;7.67;;;11.40;99.90;;;;;;4915292;29;20301;-73
2023/03/10 08:24:51;;;;;;;11.80;11.17;;;11.40;99.90;;;;;;4915534;29;20239;-74
2023/03/10 08:27:17;;;;;;;11.33;10.63;;;11.40;99.90;;;;;;4913872;29;20219;-74
2023/03/10 08:29:43;;;;;;;13.37;12.73;;;11.40;99.90;;;;;;4896008;29;20251;-72
2023/03/10 08:32:09;;;;;;;7.93;6.77;;;11.40;99.90;;;;;;4896339;29;20684;-74
2023/03/10 08:34:36;;;;;;;11.80;11.23;;;11.00;99.90;;;;;;4895212;29;20247;-72
2023/03/10 08:37:02;;;;;;;71.00;66.80;;;10.40;99.90;;;;;;4897887;29;20191;-72
2023/03/10 08:39:28;;;;;;;9.73;9.13;;;9.40;99.90;;;;;;4912094;29;20278;-73
2023/03/10 08:41:54;;;;;;;23.50;22.30;;;8.90;99.90;;;;;;4915664;29;20285;-73
2023/03/10 08:44:21;;;;;;;16.50;15.57;;;8.70;99.90;;;;;;4915006;29;20207;-74
2023/03/10 08:46:48;;;;;;;11.40;10.87;;;8.50;99.90;;;;;;4914208;29;20186;-74
2023/03/10 08:49:17;;;;;;;38.33;36.47;;;8.50;99.90;;;;;;4917798;29;20187;-73
2023/03/10 08:51:43;;;;;;;65.77;62.60;;;8.40;99.90;;;;;;4918192;29;20237;-73
2023/03/10 08:54:14;;;;;;;26.57;25.33;;;8.40;99.90;;;;;;4912870;29;20200;-74
2023/03/10 08:56:40;;;;;;;19.50;18.60;;;8.50;99.90;;;;;;4896294;29;20195;-73
2023/03/10 08:59:06;;;;;;;20.60;19.50;;;8.50;99.90;;;;;;4906944;29;20187;-73
2023/03/10 09:01:34;;;;;;;9.23;8.67;;;8.40;99.90;;;;;;4914668;29;20642;-73
2023/03/10 09:04:02;;;;;;;39.23;37.17;;;8.50;99.90;;;;;;4914748;29;20548;-73
2023/03/10 09:06:28;;;;;;;58.13;55.27;;;8.50;99.90;;;;;;4913658;29;20190;-73
2023/03/10 09:08:54;;;;;;;138.73;131.57;;;8.50;99.90;;;;;;4914204;29;20179;-73
2023/03/10 09:11:27;;;;;;;19.83;18.67;;;8.50;99.90;;;;;;4914377;29;20241;-74
2023/03/10 09:13:53;;;;;;;12.33;11.63;;;8.50;99.90;;;;;;4914278;29;20191;-77
2023/03/10 09:16:19;;;;;;;9.50;8.87;;;8.60;99.90;;;;;;4897472;29;20560;-73
2023/03/10 09:18:45;;;;;;;9.43;8.63;;;8.70;99.90;;;;;;4894448;29;20192;-75
2023/03/10 09:21:13;;;;;;;12.67;11.67;;;8.90;99.90;;;;;;4895640;29;20215;-74
2023/03/10 09:23:41;;;;;;;9.10;8.37;;;8.90;99.90;;;;;;4895139;29;20281;-74
2023/03/10 09:26:07;;;;;;;13.07;12.27;;;9.10;99.90;;;;;;4897530;29;20180;-74
2023/03/10 09:28:33;;;;;;;9.20;8.90;;;9.20;99.90;;;;;;4899326;29;20789;-73
2023/03/10 09:30:59;;;;;;;25.20;23.77;;;9.40;99.90;;;;;;4898534;29;20230;-74
2023/03/10 09:33:25;;;;;;;21.17;20.20;;;10.00;99.90;;;;;;4917658;29;20656;-74
2023/03/10 09:35:51;;;;;;;5.10;4.70;;;10.60;99.90;;;;;;4915871;29;20186;-73
2023/03/10 09:38:17;;;;;;;10.63;9.93;;;10.90;99.90;;;;;;4917635;29;20198;-74
2023/03/10 09:40:56;;;;;;;33.70;32.07;;;11.10;99.90;;;;;;4917572;29;20680;-74
2023/03/10 09:43:22;;;;;;;20.00;19.13;;;11.10;99.90;;;;;;4917948;29;20183;-72
2023/03/10 09:46:06;;;;;;;4.53;4.13;;;11.50;99.90;;;;;;4916888;29;20190;-75
2023/03/10 09:48:56;;;;;;;14.87;13.53;;;11.80;99.90;;;;;;4917358;29;20266;-73
2023/03/10 09:51:26;;;;;;;15.63;14.63;;;12.30;99.90;;;;;;4916387;29;20714;-74
2023/03/10 09:54:18;;;;;;;9.80;9.40;;;12.60;99.90;;;;;;4917085;29;20666;-72
2023/03/10 09:56:44;;;;;;;9.60;9.13;;;12.60;99.90;;;;;;4912705;29;20659;-73
2023/03/10 09:59:13;;;;;;;14.00;13.37;;;12.80;99.90;;;;;;4935062;29;20199;-73
2023/03/10 10:01:43;;;;;;;27.43;26.13;;;12.90;99.90;;;;;;4934911;29;20333;-74
2023/03/10 10:04:24;;;;;;;6.63;6.37;;;13.00;99.90;;;;;;4936165;29;20183;-74
2023/03/10 10:06:50;;;;;;;4.80;3.70;;;13.30;99.90;;;;;;4914331;29;20596;-74
2023/03/10 10:09:41;;;;;;;3.60;3.30;;;13.70;99.90;;;;;;4916821;29;20659;-74
2023/03/10 10:12:15;;;;;;;4.93;4.73;;;14.00;99.90;;;;;;4917011;29;20195;-75
2023/03/10 10:14:42;;;;;;;34.77;32.73;;;13.90;99.90;;;;;;4916311;29;20205;-73
2023/03/10 10:17:43;;;;;;;24.60;23.47;;;13.20;99.90;;;;;;4916250;29;20191;-72
2023/03/10 10:20:21;;;;;;;5.50;5.20;;;12.70;99.90;;;;;;4915529;29;20214;-74
2023/03/10 10:22:47;;;;;;;3.70;3.40;;;12.60;99.90;;;;;;4917033;29;20194;-74
2023/03/10 10:25:20;;;;;;;6.37;6.00;;;12.50;99.90;;;;;;4915169;29;20552;-73
2023/03/10 10:27:50;;;;;;;5.53;5.23;;;12.80;99.90;;;;;;4916576;29;20183;-73
2023/03/10 10:30:34;;;;;;;9.33;8.70;;;12.90;99.90;;;;;;4916594;29;20183;-73
2023/03/10 10:33:03;;;;;;;17.60;16.70;;;13.00;99.90;;;;;;4917195;29;20220;-73
2023/03/10 10:35:35;;;;;;;20.80;19.63;;;12.90;99.90;;;;;;4916097;29;20549;-73
2023/03/10 10:38:16;;;;;;;17.87;16.87;;;12.70;99.90;;;;;;4896332;29;20195;-76
2023/03/10 10:40:55;;;;;;;5.43;4.87;;;12.50;99.90;;;;;;4910948;29;20219;-74
2023/03/10 10:43:22;;;;;;;7.03;6.53;;;12.10;99.90;;;;;;4908594;29;20190;-75
2023/03/10 10:46:07;;;;;;;4.23;3.93;;;11.80;99.90;;;;;;4916129;29;20201;-76
2023/03/10 10:48:45;;;;;;;14.97;13.97;;;11.50;99.90;;;;;;4915505;29;20189;-76
2023/03/10 10:51:27;;;;;;;14.10;12.83;;;11.40;99.90;;;;;;4916608;29;20293;-76
2023/03/10 10:54:03;;;;;;;7.83;7.03;;;11.30;99.90;;;;;;4909727;29;20195;-75
2023/03/10 10:56:31;;;;;;;59.07;55.83;;;11.20;99.90;;;;;;4911945;29;20210;-76
2023/03/10 10:59:33;;;;;;;71.03;67.53;;;11.20;99.90;;;;;;4915896;29;20246;-77
2023/03/10 11:02:01;;;;;;;56.77;53.90;;;11.30;99.90;;;;;;4915885;29;20222;-75
2023/03/10 11:04:40;;;;;;;78.83;74.87;;;11.40;99.90;;;;;;4915139;29;20179;-76
2023/03/10 11:07:16;;;;;;;62.90;59.57;;;11.40;99.90;;;;;;4918642;29;20198;-76
2023/03/10 11:09:42;;;;;;;31.23;29.73;;;11.50;99.90;;;;;;4918966;29;20182;-76
2023/03/10 11:12:33;;;;;;;4.63;4.33;;;11.50;99.90;;;;;;4918108;29;20309;-76
2023/03/10 11:15:11;;;;;;;3.93;3.63;;;11.40;99.90;;;;;;4919853;29;20191;-78
2023/03/10 11:17:56;;;;;;;9.73;9.23;;;11.30;99.90;;;;;;4924526;29;20205;-76
2023/03/10 11:20:43;;;;;;;33.90;32.17;;;11.30;99.90;;;;;;4908383;29;20311;-76
2023/03/10 11:23:26;;;;;;;9.67;8.40;;;11.40;99.90;;;;;;4914720;29;20764;-77
2023/03/10 11:26:11;;;;;;;5.93;4.57;;;11.40;99.90;;;;;;4914474;29;20190;-76
2023/03/10 11:28:58;;;;;;;5.47;4.30;;;11.70;99.90;;;;;;4915517;29;20183;-77
2023/03/10 11:31:42;;;;;;;4.03;3.73;;;12.00;99.90;;;;;;4916036;29;20643;-76
2023/03/10 11:34:22;;;;;;;7.37;7.07;;;12.30;99.90;;;;;;4915719;29;20262;-77
2023/03/10 11:37:20;;;;;;;14.17;13.27;;;12.40;99.90;;;;;;4914047;29;20194;-77
2023/03/10 11:40:06;;;;;;;20.77;19.60;;;12.30;99.90;;;;;;4914016;29;20191;-77
2023/03/10 11:43:12;;;;;;;14.90;14.20;;;12.00;99.90;;;;;;4914464;29;20206;-77
2023/03/10 11:45:52;;;;;;;11.90;11.40;;;11.80;99.90;;;;;;4903993;29;20245;-78
2023/03/10 11:48:42;;;;;;;9.60;9.10;;;11.70;99.90;;;;;;4913854;29;20233;-77
2023/03/10 11:51:21;;;;;;;14.83;14.03;;;11.70;99.90;;;;;;4913310;29;20305;-77
2023/03/10 11:53:52;;;;;;;3.60;3.30;;;11.60;99.90;;;;;;4915424;29;20621;-77
2023/03/10 11:56:20;;;;;;;9.33;8.87;;;11.50;99.90;;;;;;4903618;29;20270;-77
2023/03/10 11:59:08;;;;;;;10.97;10.40;;;11.40;99.90;;;;;;4896228;29;20191;-77
2023/03/10 12:01:46;;;;;;;9.53;9.13;;;11.40;99.90;;;;;;4901925;29;20215;-76
2023/03/10 12:04:25;;;;;;;6.57;6.17;;;11.40;99.90;;;;;;4912927;29;20203;-76
2023/03/10 12:07:19;;;;;;;7.53;7.03;;;11.40;99.90;;;;;;4926008;29;20214;-76
2023/03/10 12:09:50;;;;;;;11.43;10.90;;;11.70;99.90;;;;;;4921954;29;20195;-77
2023/03/10 12:12:22;;;;;;;10.87;10.37;;;11.90;99.90;;;;;;4916937;29;20218;-77
2023/03/10 12:14:49;;;;;;;17.37;16.53;;;12.00;99.90;;;;;;4915158;29;20195;-76
2023/03/10 12:17:16;;;;;;;17.57;16.87;;;11.90;99.90;;;;;;4895722;29;20184;-75
2023/03/10 12:20:08;;;;;;;27.87;26.47;;;11.80;99.90;;;;;;4894656;29;20184;-75
2023/03/10 12:22:45;;;;;;;10.93;10.33;;;11.70;99.90;;;;;;4897626;29;20304;-74
2023/03/10 12:25:29;;;;;;;5.13;4.70;;;11.50;99.90;;;;;;4897165;29;20191;-76
2023/03/10 12:28:21;;;;;;;27.47;26.23;;;11.40;99.90;;;;;;4914686;29;20256;-76
2023/03/10 12:31:05;;;;;;;18.40;17.60;;;11.40;99.90;;;;;;4914651;29;20213;-73
2023/03/10 12:33:37;;;;;;;5.27;5.00;;;11.40;99.90;;;;;;4914802;29;20234;-74
2023/03/10 12:36:08;;;;;;;4.37;4.27;;;11.10;99.90;;;;;;4904774;29;20243;-74
2023/03/10 12:38:41;;;;;;;6.07;5.83;;;11.00;99.90;;;;;;4894203;29;20192;-74
2023/03/10 12:41:08;;;;;;;6.47;6.23;;;11.00;99.90;;;;;;4895521;29;20219;-75
2023/03/10 12:43:51;;;;;;;13.20;12.57;;;11.00;99.90;;;;;;4894780;29;20209;-74
2023/03/10 12:46:51;;;;;;;22.80;21.67;;;11.10;99.90;;;;;;4904217;29;20266;-75
2023/03/10 12:49:39;;;;;;;29.90;28.53;;;11.20;99.90;;;;;;4914581;29;20194;-75
2023/03/10 12:52:23;;;;;;;23.20;22.20;;;11.40;99.90;;;;;;4917448;29;20845;-73
2023/03/10 12:55:15;;;;;;;36.47;34.80;;;11.40;99.90;;;;;;4915540;29;20191;-74
2023/03/10 12:57:54;;;;;;;39.87;37.83;;;11.40;99.90;;;;;;4914768;29;20283;-75
2023/03/10 13:00:34;;;;;;;45.33;43.13;;;11.40;99.90;;;;;;4912481;29;20214;-74
2023/03/10 13:03:11;;;;;;;20.60;19.57;;;11.40;99.90;;;;;;4918150;29;20186;-74
2023/03/10 13:05:41;;;;;;;45.07;42.97;;;11.30;99.90;;;;;;4913672;29;20186;-74
2023/03/10 13:08:20;;;;;;;28.33;26.93;;;11.20;99.90;;;;;;4899400;29;20572;-74
2023/03/10 13:10:54;;;;;;;23.63;22.53;;;11.10;99.90;;;;;;4899318;29;20306;-74
2023/03/10 13:13:25;;;;;;;38.87;36.70;;;11.10;99.90;;;;;;4899574;29;20247;-75
2023/03/10 13:16:00;;;;;;;47.87;44.77;;;11.30;99.90;;;;;;4903995;29;20215;-75
2023/03/10 13:18:26;;;;;;;29.57;28.07;;;11.30;99.90;;;;;;4918029;29;20257;-75
2023/03/10 13:20:52;;;;;;;16.37;15.60;;;11.40;99.90;;;;;;4917901;29;20702;-76
2023/03/10 13:23:31;;;;;;;12.07;11.57;;;11.40;99.90;;;;;;4915475;29;20228;-74
2023/03/10 13:26:08;;;;;;;24.50;23.33;;;11.30;99.90;;;;;;4899159;29;20179;-74
2023/03/10 13:28:35;;;;;;;44.00;41.90;;;11.20;99.90;;;;;;4897873;29;20179;-75
2023/03/10 13:31:17;;;;;;;21.00;19.93;;;11.10;99.90;;;;;;4898966;29;20210;-74
2023/03/10 13:33:45;;;;;;;13.77;13.17;;;11.00;99.90;;;;;;4903032;29;20167;-75
2023/03/10 13:36:31;;;;;;;3.80;3.70;;;11.00;99.90;;;;;;4917948;29;20194;-75
2023/03/10 13:38:59;;;;;;;4.00;3.90;;;11.00;99.90;;;;;;4916537;29;20197;-74
2023/03/10 13:41:25;;;;;;;49.17;46.87;;;10.90;99.90;;;;;;4917845;29;20663;-75
2023/03/10 13:43:53;;;;;;;49.97;47.60;;;10.80;99.90;;;;;;4915827;29;20222;-75
2023/03/10 13:46:30;;;;;;;8.80;8.40;;;10.70;99.90;;;;;;4917761;29;20178;-76
2023/03/10 13:49:05;;;;;;;3.83;3.73;;;10.60;99.90;;;;;;4925136;29;20226;-75
2023/03/10 13:51:34;;;;;;;9.93;9.57;;;10.50;99.90;;;;;;4921252;29;20210;-74
2023/03/10 13:54:19;;;;;;;4.30;4.20;;;10.40;99.90;;;;;;4919352;29;20190;-74
2023/03/10 13:56:46;;;;;;;8.80;8.40;;;10.40;99.90;;;;;;4916496;29;20194;-74
2023/03/10 13:59:20;;;;;;;23.13;22.13;;;10.10;99.90;;;;;;4917198;29;20242;-74
2023/03/10 14:01:49;;;;;;;16.97;15.90;;;9.80;99.90;;;;;;4917151;29;20637;-74
2023/03/10 14:04:36;;;;;;;15.90;15.10;;;9.60;99.90;;;;;;4916852;29;20187;-74
2023/03/10 14:07:13;;;;;;;16.10;15.07;;;9.40;99.90;;;;;;4916598;29;20191;-74
2023/03/10 14:09:39;;;;;;;13.70;12.90;;;9.10;99.90;;;;;;4915517;29;20186;-74
2023/03/10 14:12:07;;;;;;;12.43;11.93;;;9.10;99.90;;;;;;4916889;29;20906;-74
2023/03/10 14:14:37;;;;;;;12.70;12.20;;;9.00;99.90;;;;;;4915540;29;20179;-74
2023/03/10 14:17:30;;;;;;;9.20;8.63;;;9.10;99.90;;;;;;4916834;29;20190;-74
2023/03/10 14:19:56;;;;;;;18.77;17.70;;;9.20;99.90;;;;;;4914957;29;20270;-75
2023/03/10 14:22:28;;;;;;;7.23;6.83;;;9.10;99.90;;;;;;4912238;29;20216;-74
2023/03/10 14:24:55;;;;;;;14.27;13.67;;;9.20;99.90;;;;;;4916386;29;20206;-74
2023/03/10 14:27:21;;;;;;;13.60;13.00;;;9.20;99.90;;;;;;4915523;29;20185;-73
2023/03/10 14:29:56;;;;;;;6.97;6.77;;;9.20;99.90;;;;;;4921984;29;20190;-73
2023/03/10 14:32:23;;;;;;;7.47;7.27;;;9.30;99.90;;;;;;4920009;29;20223;-74
2023/03/10 14:34:50;;;;;;;13.27;12.77;;;9.30;99.90;;;;;;4916895;29;20724;-73
2023/03/10 14:37:16;;;;;;;13.93;13.33;;;9.50;99.90;;;;;;4918829;29;20323;-73
2023/03/10 14:39:42;;;;;;;12.43;11.93;;;9.50;99.90;;;;;;4916106;29;20194;-74
2023/03/10 14:42:22;;;;;;;9.37;9.07;;;9.60;99.90;;;;;;4915337;29;20233;-74
2023/03/10 14:44:49;;;;;;;6.83;6.63;;;9.60;99.90;;;;;;4915485;29;20186;-74
2023/03/10 14:47:15;;;;;;;6.83;6.40;;;9.60;99.90;;;;;;4915934;29;20984;-73
2023/03/10 14:49:41;;;;;;;8.10;7.50;;;9.60;99.90;;;;;;4915150;29;20189;-74
2023/03/10 14:52:15;;;;;;;7.97;7.67;;;9.50;99.90;;;;;;4909615;29;20199;-74
2023/03/10 14:54:41;;;;;;;7.73;7.43;;;9.30;99.90;;;;;;4897278;29;20207;-73
2023/03/10 14:57:07;;;;;;;5.57;5.37;;;9.20;99.90;;;;;;4912334;29;20756;-73
2023/03/10 14:59:33;;;;;;;9.63;9.23;;;9.10;99.90;;;;;;4915460;29;20181;-73
2023/03/10 15:02:07;;;;;;;14.47;13.83;;;9.10;99.90;;;;;;4912821;29;20226;-74
2023/03/10 15:04:33;;;;;;;14.70;14.10;;;9.10;99.90;;;;;;4896924;29;20187;-73
2023/03/10 15:06:58;;;;;;;11.57;10.93;;;9.10;99.90;;;;;;4911125;29;20179;-73
2023/03/10 15:09:24;;;;;;;25.33;24.23;;;9.00;99.90;;;;;;4914447;29;20619;-74
2023/03/10 15:11:50;;;;;;;9.37;9.07;;;9.00;99.90;;;;;;4914386;29;20286;-73
2023/03/10 15:14:18;;;;;;;3.97;3.87;;;9.00;99.90;;;;;;4896839;29;20239;-73
2023/03/10 15:16:44;;;;;;;3.93;3.77;;;9.00;99.90;;;;;;4912294;29;20187;-73
2023/03/10 15:19:22;;;;;;;14.10;13.37;;;9.00;99.90;;;;;;4915383;29;20555;-74
2023/03/10 15:21:48;;;;;;;42.30;40.40;;;9.00;99.90;;;;;;4914357;29;20215;-74
2023/03/10 15:24:14;;;;;;;56.70;54.10;;;9.00;99.90;;;;;;4896828;29;20187;-74
2023/03/10 15:26:39;;;;;;;84.13;80.20;;;8.90;99.90;;;;;;4907193;29;20206;-75
2023/03/10 15:29:05;;;;;;;26.63;25.47;;;8.80;99.90;;;;;;4914974;29;20207;-73
2023/03/10 15:31:31;;;;;;;24.77;23.57;;;8.70;99.90;;;;;;4915498;29;20207;-73
2023/03/10 15:33:57;;;;;;;7.53;7.27;;;8.70;99.90;;;;;;4896481;29;20270;-72
2023/03/10 15:36:23;;;;;;;4.93;4.73;;;8.70;99.90;;;;;;4904243;29;20275;-74
2023/03/10 15:38:49;;;;;;;6.57;6.37;;;8.70;99.90;;;;;;4914927;29;20207;-74
2023/03/10 15:41:15;;;;;;;10.23;9.83;;;8.60;99.90;;;;;;4915016;29;20273;-73
2023/03/10 15:43:41;;;;;;;6.23;6.03;;;8.50;99.90;;;;;;4899959;29;20721;-74
2023/03/10 15:46:08;;;;;;;5.03;4.93;;;8.50;99.90;;;;;;4895430;29;20194;-74
2023/03/10 15:48:34;;;;;;;5.03;4.73;;;8.40;99.90;;;;;;4896366;29;20180;-74
2023/03/10 15:51:00;;;;;;;9.47;9.07;;;8.40;99.90;;;;;;4896593;29;20720;-74
2023/03/10 15:53:26;;;;;;;23.07;21.97;;;8.40;99.90;;;;;;4908759;29;20200;-74
2023/03/10 15:55:53;;;;;;;19.03;18.20;;;8.50;99.90;;;;;;4915468;29;20284;-73
2023/03/10 15:58:18;;;;;;;8.03;7.63;;;8.60;99.90;;;;;;4913720;29;20190;-77
2023/03/10 16:00:44;;;;;;;22.30;21.30;;;8.60;99.90;;;;;;4913456;29;20623;-73
2023/03/10 16:03:13;;;;;;;10.53;10.13;;;8.60;99.90;;;;;;4903405;29;20187;-73
2023/03/10 16:05:46;;;;;;;13.57;13.00;;;8.60;99.90;;;;;;4896119;29;20184;-74
2023/03/10 16:08:13;;;;;;;16.33;15.53;;;8.60;99.90;;;;;;4895064;29;20195;-74
2023/03/10 16:10:40;;;;;;;10.57;10.17;;;8.70;99.90;;;;;;4895084;29;20208;-75
2023/03/10 16:13:06;;;;;;;8.73;8.17;;;8.70;99.90;;;;;;4907207;29;20191;-74
2023/03/10 16:15:36;;;;;;;4.20;4.10;;;8.90;99.90;;;;;;4945415;23;20250;-71
2023/03/10 16:18:02;;;;;;;5.30;5.10;;;8.90;99.90;;;;;;4933842;29;20179;-73
2023/03/10 16:20:27;;;;;;;5.43;5.23;;;8.90;99.90;;;;;;4933388;29;20309;-71
2023/03/10 16:22:54;;;;;;;5.73;5.43;;;8.80;99.90;;;;;;4933563;29;20178;-73
2023/03/10 16:25:21;;;;;;;6.37;6.07;;;8.80;99.90;;;;;;4922571;29;20206;-73
2023/03/10 16:27:47;;;;;;;5.43;5.13;;;8.80;99.90;;;;;;4913794;29;20222;-73
2023/03/10 16:30:15;;;;;;;6.53;5.90;;;8.90;99.90;;;;;;4914234;29;20688;-73
2023/03/10 16:32:48;;;;;;;6.63;6.27;;;8.90;99.90;;;;;;4907223;29;20608;-73
2023/03/10 16:35:15;;;;;;;21.67;20.43;;;9.00;99.90;;;;;;4909934;29;20203;-73
2023/03/10 16:37:40;;;;;;;22.30;21.17;;;9.10;99.90;;;;;;4913178;29;20187;-72
2023/03/10 16:40:07;;;;;;;14.03;13.07;;;9.10;99.90;;;;;;4914018;29;20219;-73
2023/03/10 16:42:35;;;;;;;5.10;4.30;;;9.00;99.90;;;;;;4913382;29;20286;-73
2023/03/10 16:45:02;;;;;;;5.90;5.60;;;8.90;99.90;;;;;;4914413;29;20635;-73
2023/03/10 16:47:28;;;;;;;15.50;14.67;;;8.90;99.90;;;;;;4914112;29;20191;-73
2023/03/10 16:49:54;;;;;;;5.37;5.10;;;8.80;99.90;;;;;;4914323;29;20332;-74
2023/03/10 16:52:20;;;;;;;7.03;4.07;;;8.80;99.90;;;;;;4912946;29;20183;-74
2023/03/10 16:54:46;;;;;;;5.20;4.83;;;8.70;99.90;;;;;;4913002;29;20211;-74